Tyler, TX (75701)

5:34 AM CDT on August 28, 2016 (GMT -0500)
Front and Broadway | | Change Station

Elev 558 ft 32.35 °N, 95.30 °W | Updated 10 minutes ago

Overcast
Overcast
72.9 °F
Feels Like 72 °F
N
1.7
Wind Variable Wind from SSE

Today
High -- | Low -- °F
--% Chance of Precip.
Yesterday
High -- | Low -- °F
Precip. -- in
Pressure 30.00 in
Visibility 10.0 miles
Clouds Overcast 6000 ft
Heat Index 72 °F
Dew Point 68 °F
Humidity 85%
Rainfall 0.00 in
Snow Depth Not available.
6:54 AM 7:49 PM
Waning Crescent, 16% visible
METAR KTYR 280953Z 06004KT 10SM OVC060 23/22 A3002 RMK AO2 SLP158 T02280217
Pressure 30.00 in
Visibility 10.0 miles
Clouds Overcast 6000 ft
Heat Index 72 °F
Dew Point 68 °F
Humidity 85%
Rainfall 0.00 in
Snow Depth Not available.
6:54 AM 7:49 PM
Waning Crescent, 16% visible
METAR KTYR 280953Z 06004KT 10SM OVC060 23/22 A3002 RMK AO2 SLP158 T02280217

10-Day Weather Forecast

Almanac

Astronomy

Aug. 28, 2016 Rise Set
Actual Time
Civil Twilight
Nautical Twilight
Astronomical Twilight
Moon
Length of Visible Light
Length of Day
Tomorrow will be .
, % of the Moon is Illuminated

Today's Extremes

State Highs State Lows

Community

WunderPhotos

Upload Photos

1,935,541 photos uploaded!

WunderBlog® & News

Nearby

Air Quality

  Air Quality AQ Index Pollutant
Not available.

Snow Depth

Station Depth Elevation

Earthquake Activity

City Distance Mag. Time & Date
Minimum magnitude displayed is 2.5.

Coastal Water Temperatures

Place Temperature

Stations

Nearby Weather Stations

Station Location Temp. Windchill Dew Point Humidity Wind Precip. Elev Updated Type
                   

Watches & Warnings

There are currently no watches in effect.